sensor_id;sensor_type;location;lat;lon;timestamp;P1;durP1;ratioP1;P2;durP2;ratioP2
26042;SDS011;13818;52.156;5.382;2023-10-13T00:00:21;9.77;;;4.97;;
26042;SDS011;13818;52.156;5.382;2023-10-13T00:02:54;12.85;;;5.50;;
26042;SDS011;13818;52.156;5.382;2023-10-13T00:05:26;13.73;;;5.70;;
26042;SDS011;13818;52.156;5.382;2023-10-13T00:07:53;14.13;;;5.85;;
26042;SDS011;13818;52.156;5.382;2023-10-13T00:10:20;11.88;;;5.85;;
26042;SDS011;13818;52.156;5.382;2023-10-13T00:12:46;12.75;;;5.13;;
26042;SDS011;13818;52.156;5.382;2023-10-13T00:17:43;11.07;;;5.40;;
26042;SDS011;13818;52.156;5.382;2023-10-13T00:20:09;11.73;;;5.03;;
26042;SDS011;13818;52.156;5.382;2023-10-13T00:23:00;15.80;;;6.25;;
26042;SDS011;13818;52.156;5.382;2023-10-13T00:25:27;11.02;;;5.15;;
26042;SDS011;13818;52.156;5.382;2023-10-13T00:27:53;12.88;;;6.20;;
26042;SDS011;13818;52.156;5.382;2023-10-13T00:30:20;13.25;;;5.93;;
26042;SDS011;13818;52.156;5.382;2023-10-13T00:32:58;13.80;;;5.63;;
26042;SDS011;13818;52.156;5.382;2023-10-13T00:35:25;12.80;;;5.15;;
26042;SDS011;13818;52.156;5.382;2023-10-13T00:37:53;14.00;;;6.07;;
26042;SDS011;13818;52.156;5.382;2023-10-13T00:40:23;13.38;;;6.28;;
26042;SDS011;13818;52.156;5.382;2023-10-13T00:43:05;12.90;;;5.65;;
26042;SDS011;13818;52.156;5.382;2023-10-13T00:45:46;12.25;;;5.53;;
26042;SDS011;13818;52.156;5.382;2023-10-13T00:48:21;10.80;;;5.85;;
26042;SDS011;13818;52.156;5.382;2023-10-13T00:50:49;11.88;;;5.72;;
26042;SDS011;13818;52.156;5.382;2023-10-13T00:53:16;10.95;;;4.43;;
26042;SDS011;13818;52.156;5.382;2023-10-13T00:55:44;10.60;;;4.80;;
26042;SDS011;13818;52.156;5.382;2023-10-13T00:58:10;11.23;;;4.65;;
26042;SDS011;13818;52.156;5.382;2023-10-13T01:00:37;9.18;;;4.78;;
26042;SDS011;13818;52.156;5.382;2023-10-13T01:03:12;13.65;;;5.20;;
26042;SDS011;13818;52.156;5.382;2023-10-13T01:05:38;10.10;;;4.78;;
26042;SDS011;13818;52.156;5.382;2023-10-13T01:08:06;12.80;;;4.63;;
26042;SDS011;13818;52.156;5.382;2023-10-13T01:10:37;12.90;;;5.70;;
26042;SDS011;13818;52.156;5.382;2023-10-13T01:13:04;12.18;;;5.68;;
26042;SDS011;13818;52.156;5.382;2023-10-13T01:15:30;12.40;;;5.45;;
26042;SDS011;13818;52.156;5.382;2023-10-13T01:18:05;11.75;;;5.15;;
26042;SDS011;13818;52.156;5.382;2023-10-13T01:20:36;13.73;;;6.25;;
26042;SDS011;13818;52.156;5.382;2023-10-13T01:23:10;9.43;;;4.82;;
26042;SDS011;13818;52.156;5.382;2023-10-13T01:25:43;14.65;;;4.95;;
26042;SDS011;13818;52.156;5.382;2023-10-13T01:28:10;13.32;;;5.78;;
26042;SDS011;13818;52.156;5.382;2023-10-13T01:30:40;11.52;;;5.25;;
26042;SDS011;13818;52.156;5.382;2023-10-13T01:33:07;10.02;;;5.13;;
26042;SDS011;13818;52.156;5.382;2023-10-13T01:35:34;13.13;;;5.35;;
26042;SDS011;13818;52.156;5.382;2023-10-13T01:38:02;13.95;;;5.78;;
26042;SDS011;13818;52.156;5.382;2023-10-13T01:40:29;13.02;;;6.43;;
26042;SDS011;13818;52.156;5.382;2023-10-13T01:42:58;11.13;;;6.18;;
26042;SDS011;13818;52.156;5.382;2023-10-13T01:45:24;13.90;;;5.35;;
26042;SDS011;13818;52.156;5.382;2023-10-13T01:47:54;12.13;;;6.00;;
26042;SDS011;13818;52.156;5.382;2023-10-13T01:50:20;13.10;;;6.85;;
26042;SDS011;13818;52.156;5.382;2023-10-13T01:52:53;11.70;;;6.38;;
26042;SDS011;13818;52.156;5.382;2023-10-13T01:55:25;14.82;;;5.53;;
26042;SDS011;13818;52.156;5.382;2023-10-13T01:57:52;15.05;;;6.38;;
26042;SDS011;13818;52.156;5.382;2023-10-13T02:00:20;11.95;;;5.78;;
26042;SDS011;13818;52.156;5.382;2023-10-13T02:02:46;13.70;;;6.45;;
26042;SDS011;13818;52.156;5.382;2023-10-13T02:05:15;12.55;;;6.22;;
26042;SDS011;13818;52.156;5.382;2023-10-13T02:07:42;15.27;;;5.60;;
26042;SDS011;13818;52.156;5.382;2023-10-13T02:10:10;11.57;;;6.10;;
26042;SDS011;13818;52.156;5.382;2023-10-13T02:12:38;10.13;;;5.72;;
26042;SDS011;13818;52.156;5.382;2023-10-13T02:15:09;10.52;;;5.47;;
26042;SDS011;13818;52.156;5.382;2023-10-13T02:17:37;12.70;;;5.63;;
26042;SDS011;13818;52.156;5.382;2023-10-13T02:20:07;8.52;;;4.72;;
26042;SDS011;13818;52.156;5.382;2023-10-13T02:22:39;10.98;;;4.75;;
26042;SDS011;13818;52.156;5.382;2023-10-13T02:25:05;7.53;;;4.50;;
26042;SDS011;13818;52.156;5.382;2023-10-13T02:27:41;14.23;;;5.50;;
26042;SDS011;13818;52.156;5.382;2023-10-13T02:30:11;12.43;;;4.78;;
26042;SDS011;13818;52.156;5.382;2023-10-13T02:32:39;10.52;;;5.55;;
26042;SDS011;13818;52.156;5.382;2023-10-13T02:35:08;14.35;;;5.07;;
26042;SDS011;13818;52.156;5.382;2023-10-13T02:37:40;9.65;;;4.72;;
26042;SDS011;13818;52.156;5.382;2023-10-13T02:40:09;8.75;;;4.68;;
26042;SDS011;13818;52.156;5.382;2023-10-13T02:42:36;8.85;;;4.07;;
26042;SDS011;13818;52.156;5.382;2023-10-13T02:45:04;8.95;;;4.95;;
26042;SDS011;13818;52.156;5.382;2023-10-13T02:47:32;11.43;;;5.47;;
26042;SDS011;13818;52.156;5.382;2023-10-13T02:49:58;11.63;;;4.85;;
26042;SDS011;13818;52.156;5.382;2023-10-13T02:52:25;9.05;;;4.55;;
26042;SDS011;13818;52.156;5.382;2023-10-13T02:54:52;9.38;;;4.93;;
26042;SDS011;13818;52.156;5.382;2023-10-13T02:57:18;6.90;;;4.63;;
26042;SDS011;13818;52.156;5.382;2023-10-13T02:59:44;10.15;;;4.47;;
26042;SDS011;13818;52.156;5.382;2023-10-13T03:02:11;11.60;;;4.88;;
26042;SDS011;13818;52.156;5.382;2023-10-13T03:04:50;9.52;;;4.68;;
26042;SDS011;13818;52.156;5.382;2023-10-13T03:07:16;9.52;;;5.05;;
26042;SDS011;13818;52.156;5.382;2023-10-13T03:09:48;10.18;;;4.45;;
26042;SDS011;13818;52.156;5.382;2023-10-13T03:12:15;9.73;;;4.72;;
26042;SDS011;13818;52.156;5.382;2023-10-13T03:14:42;8.85;;;4.18;;
26042;SDS011;13818;52.156;5.382;2023-10-13T03:17:12;9.82;;;4.65;;
26042;SDS011;13818;52.156;5.382;2023-10-13T03:19:41;14.95;;;4.45;;
26042;SDS011;13818;52.156;5.382;2023-10-13T03:22:12;10.85;;;4.80;;
26042;SDS011;13818;52.156;5.382;2023-10-13T03:24:41;9.35;;;4.88;;
26042;SDS011;13818;52.156;5.382;2023-10-13T03:27:10;8.05;;;4.47;;
26042;SDS011;13818;52.156;5.382;2023-10-13T03:29:41;11.43;;;4.43;;
26042;SDS011;13818;52.156;5.382;2023-10-13T03:32:09;11.13;;;4.15;;
26042;SDS011;13818;52.156;5.382;2023-10-13T03:34:37;10.63;;;4.22;;
26042;SDS011;13818;52.156;5.382;2023-10-13T03:37:15;9.32;;;4.35;;
26042;SDS011;13818;52.156;5.382;2023-10-13T03:39:45;9.00;;;4.90;;
26042;SDS011;13818;52.156;5.382;2023-10-13T03:42:11;9.15;;;3.88;;
26042;SDS011;13818;52.156;5.382;2023-10-13T03:44:43;14.35;;;4.25;;
26042;SDS011;13818;52.156;5.382;2023-10-13T03:47:11;9.45;;;4.43;;
26042;SDS011;13818;52.156;5.382;2023-10-13T03:49:44;11.63;;;4.28;;
26042;SDS011;13818;52.156;5.382;2023-10-13T03:52:17;10.10;;;3.85;;
26042;SDS011;13818;52.156;5.382;2023-10-13T03:54:47;9.80;;;4.30;;
26042;SDS011;13818;52.156;5.382;2023-10-13T03:57:16;7.20;;;3.85;;
26042;SDS011;13818;52.156;5.382;2023-10-13T03:59:42;12.35;;;4.38;;
26042;SDS011;13818;52.156;5.382;2023-10-13T04:02:13;8.23;;;3.65;;
26042;SDS011;13818;52.156;5.382;2023-10-13T04:04:43;10.27;;;3.53;;
26042;SDS011;13818;52.156;5.382;2023-10-13T04:07:14;8.07;;;3.65;;
26042;SDS011;13818;52.156;5.382;2023-10-13T04:10:06;9.43;;;3.90;;
26042;SDS011;13818;52.156;5.382;2023-10-13T04:12:50;8.00;;;3.70;;
26042;SDS011;13818;52.156;5.382;2023-10-13T04:15:34;5.18;;;2.88;;
26042;SDS011;13818;52.156;5.382;2023-10-13T04:18:07;9.50;;;3.92;;
26042;SDS011;13818;52.156;5.382;2023-10-13T04:20:55;6.65;;;3.10;;
26042;SDS011;13818;52.156;5.382;2023-10-13T04:23:33;7.47;;;3.15;;
26042;SDS011;13818;52.156;5.382;2023-10-13T04:26:20;6.45;;;3.53;;
26042;SDS011;13818;52.156;5.382;2023-10-13T04:28:48;8.77;;;4.20;;
26042;SDS011;13818;52.156;5.382;2023-10-13T04:31:17;7.63;;;3.65;;
26042;SDS011;13818;52.156;5.382;2023-10-13T04:34:06;6.82;;;3.40;;
26042;SDS011;13818;52.156;5.382;2023-10-13T04:36:40;6.00;;;3.70;;
26042;SDS011;13818;52.156;5.382;2023-10-13T04:39:11;7.07;;;4.22;;
26042;SDS011;13818;52.156;5.382;2023-10-13T04:41:43;9.52;;;3.80;;
26042;SDS011;13818;52.156;5.382;2023-10-13T04:44:22;5.95;;;3.70;;
26042;SDS011;13818;52.156;5.382;2023-10-13T04:47:13;5.25;;;3.47;;
26042;SDS011;13818;52.156;5.382;2023-10-13T04:49:46;4.57;;;2.85;;
26042;SDS011;13818;52.156;5.382;2023-10-13T04:52:19;9.63;;;3.65;;
26042;SDS011;13818;52.156;5.382;2023-10-13T04:55:16;5.68;;;2.78;;
26042;SDS011;13818;52.156;5.382;2023-10-13T04:57:59;8.65;;;3.92;;
26042;SDS011;13818;52.156;5.382;2023-10-13T05:00:39;4.43;;;2.78;;
26042;SDS011;13818;52.156;5.382;2023-10-13T05:03:42;5.30;;;2.78;;
26042;SDS011;13818;52.156;5.382;2023-10-13T05:06:46;5.32;;;3.13;;
26042;SDS011;13818;52.156;5.382;2023-10-13T05:09:30;5.80;;;2.72;;
26042;SDS011;13818;52.156;5.382;2023-10-13T05:12:14;5.20;;;2.10;;
26042;SDS011;13818;52.156;5.382;2023-10-13T05:14:59;4.45;;;2.28;;
26042;SDS011;13818;52.156;5.382;2023-10-13T05:17:43;8.18;;;2.75;;
26042;SDS011;13818;52.156;5.382;2023-10-13T05:20:27;5.55;;;3.13;;
26042;SDS011;13818;52.156;5.382;2023-10-13T05:23:11;5.95;;;2.72;;
26042;SDS011;13818;52.156;5.382;2023-10-13T05:25:55;6.65;;;3.25;;
26042;SDS011;13818;52.156;5.382;2023-10-13T05:28:39;6.15;;;2.88;;
26042;SDS011;13818;52.156;5.382;2023-10-13T05:31:24;7.20;;;3.47;;
26042;SDS011;13818;52.156;5.382;2023-10-13T05:34:08;5.10;;;2.60;;
26042;SDS011;13818;52.156;5.382;2023-10-13T05:36:52;5.53;;;3.58;;
26042;SDS011;13818;52.156;5.382;2023-10-13T05:39:38;8.32;;;4.20;;
26042;SDS011;13818;52.156;5.382;2023-10-13T05:42:23;9.80;;;4.60;;
26042;SDS011;13818;52.156;5.382;2023-10-13T05:45:07;7.30;;;3.55;;
26042;SDS011;13818;52.156;5.382;2023-10-13T05:48:02;7.85;;;3.83;;
26042;SDS011;13818;52.156;5.382;2023-10-13T05:50:39;6.65;;;3.22;;
26042;SDS011;13818;52.156;5.382;2023-10-13T05:53:38;7.40;;;2.70;;
26042;SDS011;13818;52.156;5.382;2023-10-13T05:56:22;7.05;;;2.83;;
26042;SDS011;13818;52.156;5.382;2023-10-13T05:59:06;6.72;;;2.75;;
26042;SDS011;13818;52.156;5.382;2023-10-13T06:01:50;12.18;;;3.05;;
26042;SDS011;13818;52.156;5.382;2023-10-13T06:04:37;7.72;;;3.25;;
26042;SDS011;13818;52.156;5.382;2023-10-13T06:07:21;16.38;;;3.05;;
26042;SDS011;13818;52.156;5.382;2023-10-13T06:10:07;7.82;;;2.72;;
26042;SDS011;13818;52.156;5.382;2023-10-13T06:12:51;6.60;;;2.78;;
26042;SDS011;13818;52.156;5.382;2023-10-13T06:15:35;8.27;;;2.95;;
26042;SDS011;13818;52.156;5.382;2023-10-13T06:18:21;7.78;;;2.20;;
26042;SDS011;13818;52.156;5.382;2023-10-13T06:21:06;11.32;;;3.00;;
26042;SDS011;13818;52.156;5.382;2023-10-13T06:23:51;7.93;;;3.20;;
26042;SDS011;13818;52.156;5.382;2023-10-13T06:26:35;8.93;;;3.13;;
26042;SDS011;13818;52.156;5.382;2023-10-13T06:29:19;6.65;;;2.33;;
26042;SDS011;13818;52.156;5.382;2023-10-13T06:31:46;9.32;;;3.13;;
26042;SDS011;13818;52.156;5.382;2023-10-13T06:34:14;13.85;;;3.50;;
26042;SDS011;13818;52.156;5.382;2023-10-13T06:36:42;9.07;;;3.25;;
26042;SDS011;13818;52.156;5.382;2023-10-13T06:39:11;14.98;;;3.05;;
26042;SDS011;13818;52.156;5.382;2023-10-13T06:42:00;6.97;;;3.03;;
26042;SDS011;13818;52.156;5.382;2023-10-13T06:44:27;6.32;;;2.65;;
26042;SDS011;13818;52.156;5.382;2023-10-13T06:46:57;6.97;;;3.47;;
26042;SDS011;13818;52.156;5.382;2023-10-13T06:49:23;6.88;;;3.25;;
26042;SDS011;13818;52.156;5.382;2023-10-13T06:51:51;6.57;;;3.03;;
26042;SDS011;13818;52.156;5.382;2023-10-13T06:54:18;6.32;;;2.90;;
26042;SDS011;13818;52.156;5.382;2023-10-13T06:56:45;8.55;;;3.25;;
26042;SDS011;13818;52.156;5.382;2023-10-13T06:59:12;8.77;;;3.67;;
26042;SDS011;13818;52.156;5.382;2023-10-13T07:01:39;9.88;;;3.50;;
26042;SDS011;13818;52.156;5.382;2023-10-13T07:04:07;9.65;;;3.20;;
26042;SDS011;13818;52.156;5.382;2023-10-13T07:06:39;7.57;;;3.85;;
26042;SDS011;13818;52.156;5.382;2023-10-13T07:09:14;9.60;;;4.18;;
26042;SDS011;13818;52.156;5.382;2023-10-13T07:11:59;8.68;;;4.43;;
26042;SDS011;13818;52.156;5.382;2023-10-13T07:14:28;10.80;;;4.93;;
26042;SDS011;13818;52.156;5.382;2023-10-13T07:16:59;10.32;;;4.72;;
26042;SDS011;13818;52.156;5.382;2023-10-13T07:19:27;8.52;;;5.15;;
26042;SDS011;13818;52.156;5.382;2023-10-13T07:21:54;11.68;;;5.00;;
26042;SDS011;13818;52.156;5.382;2023-10-13T07:24:25;11.95;;;4.85;;
26042;SDS011;13818;52.156;5.382;2023-10-13T07:26:56;7.47;;;4.68;;
26042;SDS011;13818;52.156;5.382;2023-10-13T07:29:28;7.60;;;4.32;;
26042;SDS011;13818;52.156;5.382;2023-10-13T07:31:55;6.32;;;4.60;;
26042;SDS011;13818;52.156;5.382;2023-10-13T07:34:23;10.25;;;5.10;;
26042;SDS011;13818;52.156;5.382;2023-10-13T07:36:51;9.35;;;5.00;;
26042;SDS011;13818;52.156;5.382;2023-10-13T07:39:20;7.25;;;4.25;;
26042;SDS011;13818;52.156;5.382;2023-10-13T07:41:48;9.63;;;4.60;;
26042;SDS011;13818;52.156;5.382;2023-10-13T07:44:28;7.57;;;4.45;;
26042;SDS011;13818;52.156;5.382;2023-10-13T07:46:56;8.98;;;3.85;;
26042;SDS011;13818;52.156;5.382;2023-10-13T07:49:28;6.53;;;3.83;;
26042;SDS011;13818;52.156;5.382;2023-10-13T07:52:01;4.53;;;3.08;;
26042;SDS011;13818;52.156;5.382;2023-10-13T07:54:41;11.77;;;4.10;;
26042;SDS011;13818;52.156;5.382;2023-10-13T07:57:13;5.35;;;3.08;;
26042;SDS011;13818;52.156;5.382;2023-10-13T07:59:40;6.18;;;3.20;;
26042;SDS011;13818;52.156;5.382;2023-10-13T08:02:17;8.27;;;4.13;;
26042;SDS011;13818;52.156;5.382;2023-10-13T08:04:57;8.25;;;4.00;;
26042;SDS011;13818;52.156;5.382;2023-10-13T08:07:24;7.22;;;3.55;;
26042;SDS011;13818;52.156;5.382;2023-10-13T08:09:53;10.07;;;3.55;;
26042;SDS011;13818;52.156;5.382;2023-10-13T08:12:22;8.27;;;3.50;;
26042;SDS011;13818;52.156;5.382;2023-10-13T08:14:48;6.85;;;3.28;;
26042;SDS011;13818;52.156;5.382;2023-10-13T08:17:31;8.05;;;3.05;;
26042;SDS011;13818;52.156;5.382;2023-10-13T08:19:59;6.03;;;3.05;;
26042;SDS011;13818;52.156;5.382;2023-10-13T08:22:36;10.70;;;3.15;;
26042;SDS011;13818;52.156;5.382;2023-10-13T08:25:03;8.00;;;3.20;;
26042;SDS011;13818;52.156;5.382;2023-10-13T08:28:12;7.32;;;2.85;;
26042;SDS011;13818;52.156;5.382;2023-10-13T08:30:56;7.45;;;2.75;;
26042;SDS011;13818;52.156;5.382;2023-10-13T08:33:23;6.55;;;2.95;;
26042;SDS011;13818;52.156;5.382;2023-10-13T08:35:52;7.93;;;2.95;;
26042;SDS011;13818;52.156;5.382;2023-10-13T08:38:43;6.90;;;2.83;;
26042;SDS011;13818;52.156;5.382;2023-10-13T08:41:16;7.35;;;3.17;;
26042;SDS011;13818;52.156;5.382;2023-10-13T08:43:57;7.70;;;2.22;;
26042;SDS011;13818;52.156;5.382;2023-10-13T08:46:30;10.40;;;3.47;;
26042;SDS011;13818;52.156;5.382;2023-10-13T08:49:17;9.10;;;2.95;;
26042;SDS011;13818;52.156;5.382;2023-10-13T08:51:48;9.93;;;2.53;;
26042;SDS011;13818;52.156;5.382;2023-10-13T08:54:16;7.40;;;2.88;;
26042;SDS011;13818;52.156;5.382;2023-10-13T08:56:58;11.50;;;2.60;;
26042;SDS011;13818;52.156;5.382;2023-10-13T08:59:33;6.50;;;2.67;;
26042;SDS011;13818;52.156;5.382;2023-10-13T09:02:03;7.00;;;2.38;;
26042;SDS011;13818;52.156;5.382;2023-10-13T09:04:42;9.02;;;2.97;;
26042;SDS011;13818;52.156;5.382;2023-10-13T09:07:09;4.50;;;2.33;;
26042;SDS011;13818;52.156;5.382;2023-10-13T09:09:46;7.65;;;2.30;;
26042;SDS011;13818;52.156;5.382;2023-10-13T09:12:36;7.88;;;2.63;;
26042;SDS011;13818;52.156;5.382;2023-10-13T09:15:07;7.22;;;2.85;;
26042;SDS011;13818;52.156;5.382;2023-10-13T09:17:45;6.93;;;2.38;;
26042;SDS011;13818;52.156;5.382;2023-10-13T09:20:17;6.97;;;2.47;;
26042;SDS011;13818;52.156;5.382;2023-10-13T09:23:08;9.30;;;3.38;;
26042;SDS011;13818;52.156;5.382;2023-10-13T09:25:35;5.47;;;2.50;;
26042;SDS011;13818;52.156;5.382;2023-10-13T09:28:02;5.03;;;2.83;;
26042;SDS011;13818;52.156;5.382;2023-10-13T09:30:43;12.40;;;3.33;;
26042;SDS011;13818;52.156;5.382;2023-10-13T09:33:10;4.63;;;2.67;;
26042;SDS011;13818;52.156;5.382;2023-10-13T09:35:41;11.63;;;2.55;;
26042;SDS011;13818;52.156;5.382;2023-10-13T09:38:14;6.15;;;2.90;;
26042;SDS011;13818;52.156;5.382;2023-10-13T09:40:40;6.88;;;2.88;;
26042;SDS011;13818;52.156;5.382;2023-10-13T09:43:11;10.20;;;3.13;;
26042;SDS011;13818;52.156;5.382;2023-10-13T09:45:40;5.68;;;2.58;;
26042;SDS011;13818;52.156;5.382;2023-10-13T09:48:23;6.50;;;2.92;;
26042;SDS011;13818;52.156;5.382;2023-10-13T09:50:57;8.18;;;2.75;;
26042;SDS011;13818;52.156;5.382;2023-10-13T09:53:28;6.38;;;2.45;;
26042;SDS011;13818;52.156;5.382;2023-10-13T09:55:57;7.53;;;2.97;;
26042;SDS011;13818;52.156;5.382;2023-10-13T09:58:38;8.13;;;2.40;;
26042;SDS011;13818;52.156;5.382;2023-10-13T10:01:18;14.73;;;3.20;;
26042;SDS011;13818;52.156;5.382;2023-10-13T10:04:07;10.00;;;3.15;;
26042;SDS011;13818;52.156;5.382;2023-10-13T10:06:34;12.32;;;3.05;;
26042;SDS011;13818;52.156;5.382;2023-10-13T10:09:09;4.47;;;2.65;;
26042;SDS011;13818;52.156;5.382;2023-10-13T10:12:01;5.53;;;2.42;;
26042;SDS011;13818;52.156;5.382;2023-10-13T10:17:37;5.80;;;2.60;;
26042;SDS011;13818;52.156;5.382;2023-10-13T10:20:07;8.65;;;2.47;;
26042;SDS011;13818;52.156;5.382;2023-10-13T10:22:40;14.60;;;3.15;;
26042;SDS011;13818;52.156;5.382;2023-10-13T10:25:11;8.50;;;3.50;;
26042;SDS011;13818;52.156;5.382;2023-10-13T10:27:54;7.30;;;2.95;;
26042;SDS011;13818;52.156;5.382;2023-10-13T10:30:23;8.77;;;2.35;;
26042;SDS011;13818;52.156;5.382;2023-10-13T10:32:53;6.82;;;3.20;;
26042;SDS011;13818;52.156;5.382;2023-10-13T10:35:25;9.27;;;2.97;;
26042;SDS011;13818;52.156;5.382;2023-10-13T10:37:55;9.05;;;3.30;;
26042;SDS011;13818;52.156;5.382;2023-10-13T10:40:36;12.00;;;3.25;;
26042;SDS011;13818;52.156;5.382;2023-10-13T10:43:17;7.50;;;3.03;;
26042;SDS011;13818;52.156;5.382;2023-10-13T10:45:45;6.57;;;2.72;;
26042;SDS011;13818;52.156;5.382;2023-10-13T10:48:13;8.40;;;3.38;;
26042;SDS011;13818;52.156;5.382;2023-10-13T10:50:45;7.07;;;2.85;;
26042;SDS011;13818;52.156;5.382;2023-10-13T10:53:19;6.80;;;3.20;;
26042;SDS011;13818;52.156;5.382;2023-10-13T10:55:47;6.75;;;3.13;;
26042;SDS011;13818;52.156;5.382;2023-10-13T10:58:13;5.70;;;2.92;;
26042;SDS011;13818;52.156;5.382;2023-10-13T11:01:03;6.97;;;3.03;;
26042;SDS011;13818;52.156;5.382;2023-10-13T11:03:35;4.00;;;2.30;;
26042;SDS011;13818;52.156;5.382;2023-10-13T11:08:37;4.63;;;2.13;;
26042;SDS011;13818;52.156;5.382;2023-10-13T11:11:03;6.35;;;3.20;;
26042;SDS011;13818;52.156;5.382;2023-10-13T11:13:39;10.20;;;3.42;;
26042;SDS011;13818;52.156;5.382;2023-10-13T11:16:19;7.00;;;3.00;;
26042;SDS011;13818;52.156;5.382;2023-10-13T11:18:59;5.10;;;2.70;;
26042;SDS011;13818;52.156;5.382;2023-10-13T11:21:29;12.30;;;3.58;;
26042;SDS011;13818;52.156;5.382;2023-10-13T11:23:56;6.05;;;2.72;;
26042;SDS011;13818;52.156;5.382;2023-10-13T11:26:32;8.32;;;3.30;;
26042;SDS011;13818;52.156;5.382;2023-10-13T11:28:59;8.35;;;2.80;;
26042;SDS011;13818;52.156;5.382;2023-10-13T11:31:29;7.60;;;2.72;;
26042;SDS011;13818;52.156;5.382;2023-10-13T11:33:56;7.35;;;2.85;;
26042;SDS011;13818;52.156;5.382;2023-10-13T11:36:26;9.55;;;3.25;;
26042;SDS011;13818;52.156;5.382;2023-10-13T11:38:59;5.80;;;2.75;;
26042;SDS011;13818;52.156;5.382;2023-10-13T11:41:25;8.68;;;3.50;;
26042;SDS011;13818;52.156;5.382;2023-10-13T11:43:59;7.82;;;2.28;;
26042;SDS011;13818;52.156;5.382;2023-10-13T11:46:37;9.88;;;3.30;;
26042;SDS011;13818;52.156;5.382;2023-10-13T11:49:23;13.23;;;3.22;;
26042;SDS011;13818;52.156;5.382;2023-10-13T11:51:59;7.25;;;2.47;;
26042;SDS011;13818;52.156;5.382;2023-10-13T11:54:42;10.65;;;3.05;;
26042;SDS011;13818;52.156;5.382;2023-10-13T11:57:09;4.97;;;2.50;;
26042;SDS011;13818;52.156;5.382;2023-10-13T11:59:35;10.18;;;3.65;;
26042;SDS011;13818;52.156;5.382;2023-10-13T12:02:09;9.20;;;3.25;;
26042;SDS011;13818;52.156;5.382;2023-10-13T12:04:54;5.97;;;3.35;;
26042;SDS011;13818;52.156;5.382;2023-10-13T12:07:22;13.77;;;3.08;;
26042;SDS011;13818;52.156;5.382;2023-10-13T12:09:53;8.68;;;3.22;;
26042;SDS011;13818;52.156;5.382;2023-10-13T12:12:31;9.32;;;3.00;;
26042;SDS011;13818;52.156;5.382;2023-10-13T12:15:05;5.30;;;2.88;;
26042;SDS011;13818;52.156;5.382;2023-10-13T12:17:39;9.80;;;3.10;;
26042;SDS011;13818;52.156;5.382;2023-10-13T12:20:10;7.13;;;3.28;;
26042;SDS011;13818;52.156;5.382;2023-10-13T12:22:43;13.05;;;3.25;;
26042;SDS011;13818;52.156;5.382;2023-10-13T12:25:21;10.68;;;3.55;;
26042;SDS011;13818;52.156;5.382;2023-10-13T12:28:09;7.05;;;2.40;;
26042;SDS011;13818;52.156;5.382;2023-10-13T12:30:43;11.25;;;3.40;;
26042;SDS011;13818;52.156;5.382;2023-10-13T12:33:14;8.75;;;3.40;;
26042;SDS011;13818;52.156;5.382;2023-10-13T12:35:49;10.02;;;3.28;;
26042;SDS011;13818;52.156;5.382;2023-10-13T12:38:28;9.40;;;2.65;;
26042;SDS011;13818;52.156;5.382;2023-10-13T12:41:17;7.10;;;3.08;;
26042;SDS011;13818;52.156;5.382;2023-10-13T12:44:02;9.50;;;3.45;;
26042;SDS011;13818;52.156;5.382;2023-10-13T12:46:47;7.25;;;3.15;;
26042;SDS011;13818;52.156;5.382;2023-10-13T12:49:32;9.32;;;2.88;;
26042;SDS011;13818;52.156;5.382;2023-10-13T12:52:14;6.90;;;3.03;;
26042;SDS011;13818;52.156;5.382;2023-10-13T12:54:45;7.57;;;3.50;;
26042;SDS011;13818;52.156;5.382;2023-10-13T12:57:24;7.22;;;3.38;;
26042;SDS011;13818;52.156;5.382;2023-10-13T12:59:51;8.60;;;3.33;;
26042;SDS011;13818;52.156;5.382;2023-10-13T13:02:19;12.15;;;3.28;;
26042;SDS011;13818;52.156;5.382;2023-10-13T13:04:46;10.18;;;3.47;;
26042;SDS011;13818;52.156;5.382;2023-10-13T13:07:16;6.72;;;3.20;;
26042;SDS011;13818;52.156;5.382;2023-10-13T13:09:42;8.70;;;3.28;;
26042;SDS011;13818;52.156;5.382;2023-10-13T13:12:09;9.32;;;3.03;;
26042;SDS011;13818;52.156;5.382;2023-10-13T13:14:39;13.18;;;3.67;;
26042;SDS011;13818;52.156;5.382;2023-10-13T13:17:11;9.68;;;3.22;;
26042;SDS011;13818;52.156;5.382;2023-10-13T13:19:37;10.23;;;3.08;;
26042;SDS011;13818;52.156;5.382;2023-10-13T13:22:05;6.90;;;3.70;;
26042;SDS011;13818;52.156;5.382;2023-10-13T13:24:36;12.20;;;3.45;;
26042;SDS011;13818;52.156;5.382;2023-10-13T13:27:08;11.32;;;3.45;;
26042;SDS011;13818;52.156;5.382;2023-10-13T13:29:35;11.40;;;3.40;;
26042;SDS011;13818;52.156;5.382;2023-10-13T13:32:04;7.78;;;3.00;;
26042;SDS011;13818;52.156;5.382;2023-10-13T13:34:32;8.38;;;2.97;;
26042;SDS011;13818;52.156;5.382;2023-10-13T13:36:59;10.65;;;3.70;;
26042;SDS011;13818;52.156;5.382;2023-10-13T13:39:27;9.20;;;3.83;;
26042;SDS011;13818;52.156;5.382;2023-10-13T13:41:55;5.63;;;3.50;;
26042;SDS011;13818;52.156;5.382;2023-10-13T13:44:23;12.27;;;3.75;;
26042;SDS011;13818;52.156;5.382;2023-10-13T13:46:54;10.05;;;3.75;;
26042;SDS011;13818;52.156;5.382;2023-10-13T13:49:23;9.30;;;3.65;;
26042;SDS011;13818;52.156;5.382;2023-10-13T13:51:55;7.03;;;3.53;;
26042;SDS011;13818;52.156;5.382;2023-10-13T13:54:22;11.98;;;3.88;;
26042;SDS011;13818;52.156;5.382;2023-10-13T13:56:52;8.48;;;4.28;;
26042;SDS011;13818;52.156;5.382;2023-10-13T13:59:19;9.80;;;3.40;;
26042;SDS011;13818;52.156;5.382;2023-10-13T14:01:45;9.95;;;4.10;;
26042;SDS011;13818;52.156;5.382;2023-10-13T14:04:12;8.50;;;3.83;;
26042;SDS011;13818;52.156;5.382;2023-10-13T14:06:44;9.55;;;3.42;;
26042;SDS011;13818;52.156;5.382;2023-10-13T14:09:10;8.93;;;3.67;;
26042;SDS011;13818;52.156;5.382;2023-10-13T14:11:41;11.10;;;3.97;;
26042;SDS011;13818;52.156;5.382;2023-10-13T14:14:36;11.23;;;4.13;;
26042;SDS011;13818;52.156;5.382;2023-10-13T14:17:11;10.77;;;3.40;;
26042;SDS011;13818;52.156;5.382;2023-10-13T14:19:37;10.02;;;3.55;;
26042;SDS011;13818;52.156;5.382;2023-10-13T14:22:07;5.68;;;3.72;;
26042;SDS011;13818;52.156;5.382;2023-10-13T14:24:37;12.75;;;3.78;;
26042;SDS011;13818;52.156;5.382;2023-10-13T14:27:08;8.15;;;3.55;;
26042;SDS011;13818;52.156;5.382;2023-10-13T14:29:37;10.07;;;4.47;;
26042;SDS011;13818;52.156;5.382;2023-10-13T14:32:07;8.85;;;3.15;;
26042;SDS011;13818;52.156;5.382;2023-10-13T14:34:38;7.82;;;3.53;;
26042;SDS011;13818;52.156;5.382;2023-10-13T14:37:05;8.07;;;3.03;;
26042;SDS011;13818;52.156;5.382;2023-10-13T14:39:32;8.25;;;3.30;;
26042;SDS011;13818;52.156;5.382;2023-10-13T14:42:02;8.13;;;3.75;;
26042;SDS011;13818;52.156;5.382;2023-10-13T14:44:30;11.82;;;3.75;;
26042;SDS011;13818;52.156;5.382;2023-10-13T14:46:57;10.63;;;4.20;;
26042;SDS011;13818;52.156;5.382;2023-10-13T14:49:24;14.63;;;3.65;;
26042;SDS011;13818;52.156;5.382;2023-10-13T14:51:51;14.20;;;4.15;;
26042;SDS011;13818;52.156;5.382;2023-10-13T14:54:20;12.43;;;3.70;;
26042;SDS011;13818;52.156;5.382;2023-10-13T14:56:59;12.38;;;3.58;;
26042;SDS011;13818;52.156;5.382;2023-10-13T14:59:26;8.52;;;3.83;;
26042;SDS011;13818;52.156;5.382;2023-10-13T15:01:58;9.77;;;3.88;;
26042;SDS011;13818;52.156;5.382;2023-10-13T15:04:26;11.55;;;3.65;;
26042;SDS011;13818;52.156;5.382;2023-10-13T15:06:53;10.85;;;3.95;;
26042;SDS011;13818;52.156;5.382;2023-10-13T15:09:20;13.23;;;3.70;;
26042;SDS011;13818;52.156;5.382;2023-10-13T15:11:48;12.88;;;4.10;;
26042;SDS011;13818;52.156;5.382;2023-10-13T15:14:19;11.50;;;3.88;;
26042;SDS011;13818;52.156;5.382;2023-10-13T15:16:47;9.48;;;3.50;;
26042;SDS011;13818;52.156;5.382;2023-10-13T15:19:14;11.88;;;4.20;;
26042;SDS011;13818;52.156;5.382;2023-10-13T15:21:41;10.73;;;4.00;;
26042;SDS011;13818;52.156;5.382;2023-10-13T15:24:08;11.73;;;4.13;;
26042;SDS011;13818;52.156;5.382;2023-10-13T15:26:39;6.55;;;3.10;;